createdAt,value
2019-01-19T10:58:37.880Z,65.50
2019-01-19T11:01:08.979Z,60.00
2019-01-19T11:04:01.782Z,61.10
2019-01-19T11:06:31.870Z,59.10
2019-01-19T11:09:01.896Z,68.90
2019-01-19T11:11:33.517Z,75.60
2019-01-19T11:21:29.585Z,64.70
2019-01-19T11:24:01.133Z,66.00
2019-01-19T11:26:31.219Z,69.70
2019-01-19T11:29:01.206Z,66.20
2019-01-19T11:31:31.202Z,60.60
2019-01-19T11:34:02.840Z,58.20
2019-01-19T11:36:40.669Z,63.90
2019-01-19T11:39:48.001Z,64.10
2019-01-19T11:45:26.109Z,62.80
2019-01-19T11:47:56.263Z,64.40
2019-01-19T11:50:26.384Z,60.30
2019-01-19T11:52:56.587Z,59.90
2019-01-19T11:55:26.809Z,61.20
2019-01-19T12:13:18.795Z,62.00
2019-01-19T12:15:48.773Z,59.80
2019-01-19T12:18:18.760Z,58.90
2019-01-19T12:20:48.983Z,59.60
2019-01-19T12:23:19.052Z,65.10
2019-01-19T12:25:48.964Z,63.50
2019-01-19T12:28:18.943Z,62.70
2019-01-19T12:30:48.971Z,58.90
2019-01-19T12:33:19.047Z,58.60
2019-01-19T12:35:49.044Z,62.90
2019-01-19T12:38:18.955Z,60.70
2019-01-19T12:40:48.935Z,58.20
2019-01-19T12:43:18.843Z,59.80
2019-01-19T12:45:51.614Z,59.70
2019-01-19T12:48:21.775Z,59.30
2019-01-19T12:50:51.822Z,60.40
2019-01-19T12:53:21.841Z,61.40
2019-01-19T12:55:51.824Z,59.70
2019-01-19T12:58:22.031Z,59.80
2019-01-19T13:00:52.118Z,59.90
2019-01-19T13:03:22.039Z,63.40
2019-01-19T13:06:06.262Z,62.70
2019-01-19T13:08:36.178Z,63.40
2019-01-19T13:11:11.662Z,68.40
2019-01-19T13:13:44.380Z,73.10
2019-01-19T13:16:36.774Z,76.70
2019-01-19T13:19:24.693Z,75.50
2019-01-19T13:22:40.260Z,76.90
2019-01-19T13:25:18.860Z,77.30
2019-01-19T13:28:11.450Z,79.40
2019-01-19T13:31:19.398Z,77.90
2019-01-19T13:33:57.960Z,80.30
2019-01-19T13:36:30.876Z,82.20
2019-01-19T13:39:12.638Z,80.40
2019-01-19T13:42:01.950Z,80.20
2019-01-19T13:44:34.946Z,80.60
2019-01-19T13:47:24.341Z,81.00
2019-01-19T13:50:15.257Z,82.50
2019-01-19T13:53:28.256Z,82.10
2019-01-19T13:56:23.542Z,80.70
2019-01-19T13:59:19.819Z,80.50
2019-01-19T14:02:25.637Z,80.10
2019-01-19T14:05:04.097Z,82.10
2019-01-19T14:07:42.787Z,83.90
2019-01-19T14:10:21.379Z,84.10
2019-01-19T14:13:10.651Z,84.60
2019-01-19T14:15:46.170Z,84.40
2019-01-19T14:18:36.888Z,83.80
2019-01-19T14:21:12.998Z,84.90
2019-01-19T14:23:49.092Z,85.80
2019-01-19T14:26:47.114Z,86.00
2019-01-19T14:29:37.970Z,85.20
2019-01-19T14:32:16.675Z,86.90
2019-01-19T14:35:07.591Z,87.30
2019-01-19T14:37:52.516Z,86.50
2019-01-19T14:40:40.312Z,87.90
2019-01-19T14:43:30.959Z,89.40
2019-01-19T14:46:09.568Z,90.20
2019-01-19T14:49:00.522Z,90.10
2019-01-19T14:51:42.043Z,90.30
2019-01-19T14:54:37.457Z,90.60
2019-01-19T14:57:22.377Z,90.70
2019-01-19T15:00:07.030Z,91.10
2019-01-19T15:03:02.627Z,91.80
2019-01-19T15:05:38.694Z,91.80
2019-01-19T15:08:33.374Z,92.20
2019-01-19T15:11:25.919Z,92.20
2019-01-19T15:14:05.699Z,92.60
2019-01-19T15:16:44.442Z,92.70
2019-01-19T15:19:35.152Z,92.80
2019-01-19T15:22:19.339Z,92.60
2019-01-19T15:24:52.259Z,92.70
2019-01-19T15:27:41.294Z,92.80
2019-01-19T15:30:39.084Z,92.80
2019-01-19T15:33:20.966Z,93.00
2019-01-19T15:35:59.404Z,93.60
2019-01-19T15:38:38.183Z,93.50
2019-01-19T15:41:25.223Z,93.40
2019-01-19T15:44:15.651Z,93.50
2019-01-19T15:47:15.374Z,94.00
2019-01-19T15:49:57.208Z,94.50
2019-01-19T15:52:30.134Z,93.90
2019-01-19T15:55:21.242Z,94.60
2019-01-19T15:58:18.510Z,94.90
2019-01-19T16:01:21.021Z,95.10
2019-01-19T16:04:18.126Z,94.70
2019-01-19T16:06:51.751Z,94.70
2019-01-19T16:09:55.087Z,95.60
2019-01-19T16:12:33.935Z,95.40
2019-01-19T16:15:24.721Z,94.80
2019-01-19T16:18:06.471Z,94.70
2019-01-19T16:21:02.925Z,94.70
2019-01-19T16:23:44.813Z,94.60
2019-01-19T16:26:35.826Z,95.20
2019-01-19T16:29:20.770Z,95.40
2019-01-19T16:35:14.304Z,95.70
2019-01-19T16:37:53.102Z,95.80
2019-01-19T16:40:48.395Z,95.90
2019-01-19T16:43:49.514Z,96.10
2019-01-19T16:46:44.919Z,96.30
2019-01-19T16:49:37.309Z,96.20
2019-01-19T16:52:10.247Z,95.90
2019-01-19T16:54:43.356Z,96.80
2019-01-19T16:57:31.610Z,96.50
2019-01-19T17:00:24.152Z,96.30
2019-01-19T17:03:19.731Z,96.60
2019-01-19T17:05:58.566Z,97.10
2019-01-19T17:08:52.997Z,97.10
2019-01-19T17:11:40.898Z,97.10
2019-01-19T17:14:22.771Z,97.00
2019-01-19T17:16:55.687Z,97.30
2019-01-19T17:19:50.928Z,97.30
2019-01-19T17:22:26.524Z,97.30
2019-01-19T17:25:33.483Z,97.60
2019-01-19T17:28:08.797Z,97.70
2019-01-19T17:30:44.879Z,97.80
2019-01-19T17:33:18.631Z,97.50
2019-01-19T17:36:10.048Z,97.40
2019-01-19T17:39:10.675Z,97.50
2019-01-19T17:41:48.011Z,97.70
2019-01-19T17:44:26.951Z,97.90
2019-01-19T17:47:16.729Z,98.10
2019-01-19T17:49:55.403Z,98.20
2019-01-19T17:52:43.244Z,98.30
2019-01-19T17:55:19.230Z,98.30
2019-01-19T17:58:07.063Z,98.10
2019-01-19T18:00:59.162Z,98.40
2019-01-19T18:03:52.891Z,98.40
2019-01-19T18:06:56.847Z,97.90
2019-01-19T18:09:38.319Z,98.20
2019-01-19T18:12:14.059Z,98.30
2019-01-19T18:14:52.637Z,98.40
2019-01-19T18:17:43.331Z,98.50
2019-01-19T18:20:41.795Z,98.40
2019-01-19T18:23:42.470Z,98.60
2019-01-19T18:26:33.612Z,98.70
2019-01-19T18:29:41.831Z,98.40
2019-01-19T18:32:38.583Z,98.60
2019-01-19T18:35:11.545Z,98.90
2019-01-19T18:37:53.075Z,98.70
2019-01-19T18:40:47.058Z,98.60
2019-01-19T18:43:40.681Z,98.70
2019-01-19T18:46:19.308Z,98.90
2019-01-19T18:49:10.040Z,99.10
2019-01-19T18:52:00.738Z,98.90
2019-01-19T18:54:59.162Z,99.10
2019-01-19T18:57:56.002Z,98.80
2019-01-19T19:00:43.837Z,98.70
2019-01-19T19:03:34.826Z,99.00
2019-01-19T19:06:31.967Z,99.40
2019-01-19T19:09:24.305Z,98.90
2019-01-19T19:12:02.959Z,98.80
2019-01-19T19:14:41.751Z,99.20
2019-01-19T19:17:32.890Z,99.40
2019-01-19T19:20:20.351Z,99.30
2019-01-19T19:22:55.771Z,99.10
2019-01-19T19:26:02.639Z,98.80
2019-01-19T19:28:38.307Z,99.20
2019-01-19T19:31:11.219Z,98.90
2019-01-19T19:36:49.223Z,99.20
2019-01-19T19:39:39.964Z,99.30
2019-01-19T19:42:32.503Z,99.30
2019-01-19T19:45:14.468Z,99.30
2019-01-19T19:48:20.630Z,99.40
2019-01-19T19:51:02.680Z,99.20
2019-01-19T19:53:34.405Z,99.30
2019-01-19T19:56:03.283Z,99.30
2019-01-19T19:58:33.240Z,99.10
2019-01-19T20:01:03.451Z,99.40
2019-01-19T20:03:33.498Z,99.50
2019-01-19T20:06:03.593Z,99.60
2019-01-19T20:08:34.815Z,99.50
2019-01-19T20:11:05.029Z,99.50
2019-01-19T20:13:35.228Z,99.60
2019-01-19T20:16:05.369Z,99.40
2019-01-19T20:18:35.393Z,99.40
2019-01-19T20:21:05.391Z,99.40
2019-01-19T20:23:35.402Z,99.60
2019-01-19T20:26:05.558Z,99.70
2019-01-19T20:28:35.567Z,99.90
2019-01-19T20:31:05.611Z,99.90
2019-01-19T20:33:36.919Z,99.90
2019-01-19T20:36:07.028Z,99.90
2019-01-19T20:38:36.957Z,99.90
2019-01-19T20:41:06.976Z,99.80
2019-01-19T20:43:37.006Z,99.80
2019-01-19T20:46:07.237Z,99.90
2019-01-19T20:48:37.664Z,99.90
2019-01-19T20:51:07.704Z,99.90
2019-01-19T20:53:37.805Z,99.90
2019-01-19T20:56:08.008Z,99.90
2019-01-19T20:58:38.238Z,99.90
2019-01-19T21:01:08.240Z,99.90
2019-01-19T21:03:38.273Z,99.90
2019-01-19T21:06:08.372Z,99.90
2019-01-19T21:08:38.371Z,99.80
2019-01-19T21:11:08.306Z,99.90
2019-01-19T21:13:38.344Z,99.90
2019-01-19T21:16:08.599Z,99.90
2019-01-19T21:18:38.607Z,99.90
2019-01-19T21:21:08.538Z,99.90
2019-01-19T21:23:38.647Z,99.90
2019-01-19T21:26:08.848Z,99.90
2019-01-19T21:28:38.944Z,99.90
2019-01-19T21:31:08.879Z,99.90
2019-01-19T21:33:38.892Z,99.90
2019-01-19T21:36:09.031Z,99.90
2019-01-19T21:38:39.034Z,99.90
2019-01-19T21:41:09.137Z,99.90
2019-01-19T21:43:39.155Z,99.90
2019-01-19T21:46:09.183Z,99.90
2019-01-19T21:48:39.182Z,99.90
2019-01-19T21:51:09.132Z,99.90
2019-01-19T21:53:39.240Z,99.90
2019-01-19T21:56:09.271Z,99.90
2019-01-19T21:58:39.287Z,99.90
2019-01-19T22:01:09.327Z,99.90
2019-01-19T22:03:39.359Z,99.90
2019-01-19T22:06:09.919Z,99.90
2019-01-19T22:08:40.023Z,99.90
2019-01-19T22:11:41.632Z,99.90
2019-01-19T22:14:11.678Z,99.90
2019-01-19T22:16:41.701Z,99.90
2019-01-19T22:19:11.859Z,99.90
2019-01-19T22:21:41.963Z,99.90
2019-01-19T22:24:11.971Z,99.90
2019-01-19T22:26:43.373Z,99.90
2019-01-19T22:29:13.395Z,99.90
2019-01-19T22:31:43.543Z,99.90
2019-01-19T22:34:13.639Z,99.90
2019-01-19T22:36:43.577Z,99.90
2019-01-19T22:39:13.579Z,99.90
2019-01-19T22:41:43.522Z,99.90
2019-01-19T22:44:13.626Z,99.90
2019-01-19T22:46:43.644Z,99.90
2019-01-19T22:49:13.743Z,99.90
2019-01-19T22:51:43.877Z,99.90
2019-01-19T22:54:13.874Z,99.90
2019-01-19T22:56:43.810Z,99.90
2019-01-19T22:59:13.838Z,99.90
2019-01-19T23:01:45.038Z,99.90
2019-01-19T23:04:15.133Z,99.90
2019-01-19T23:06:45.269Z,99.90
2019-01-19T23:09:16.323Z,99.90
2019-01-19T23:11:46.255Z,99.90
2019-01-19T23:14:16.360Z,99.90
2019-01-19T23:16:46.394Z,99.90
2019-01-19T23:19:16.483Z,99.90
2019-01-19T23:21:46.563Z,99.90
2019-01-19T23:24:21.312Z,99.90
2019-01-19T23:26:55.838Z,99.90
2019-01-19T23:29:26.171Z,99.90
2019-01-19T23:31:56.243Z,99.90
2019-01-19T23:34:26.247Z,99.90
2019-01-19T23:36:56.246Z,99.90
2019-01-19T23:39:26.199Z,99.90
2019-01-19T23:41:56.299Z,99.90
2019-01-19T23:44:26.304Z,99.90
2019-01-19T23:46:56.237Z,99.90
2019-01-19T23:49:26.451Z,99.90
2019-01-19T23:51:56.382Z,99.90
2019-01-19T23:54:26.379Z,99.80
2019-01-19T23:56:56.315Z,99.70
2019-01-19T23:59:27.180Z,99.90
